^^
Station Historical Data
Daily Summary for January 2, 2018 Units:  Both    English   Metric
« Previous Day
Next Day »
Daily Weekly Monthly Yearly Custom
  High: Low: Average:
Temperature: TemperatureC °F /  -17.8 °C 1.1 °F /  -17.2 °C 2.8 °F /  -16.2 °C
Dew Point: DewpointC °F /  -17.8 °C 0.1 °F /  -17.7 °C 1.8 °F /  -16.8 °C
Humidity: Humidity% 93% 93%
Wind Speed: WindSpeedKMHmph /  0km/h - 1mph /  1.6km/h
Wind Gust: WindSpeedGustKMHmph /  0km/h - -
Wind- - SSW
Pressure: PressurehPa in /  0 hPa 988.0 in /  33453.7 hPa -
Precipitation: 1.3 in /  33.02 mm    
Historical Graphs
 
 
Tabular Data for January 2, 2018
Time Temperature Dew Point Pressure Wind Wind Speed Wind Gust Humidity Rainfall Rate (Hourly) solar Conditions
TemperatureC °F /  -17.8 °C DewpointC °F /  -17.8 °C PressurehPain /  0hPa Calm     Humidity% HourlyPrecipMMin /  0mm SoftwareType W/m2 Conditions
00:00 1.1 °F /  -17.2 °C 0.1 °F /  -17.7 °C 988.7in /  33477.4hPa ESE 0.2mph /  0.3km/h 1.9mph /  3.1km/h 93% 0.0in /  0mm WeatherDisplay:10.37 W/m2 RA
00:01 1.1 °F /  -17.2 °C 0.1 °F /  -17.7 °C 988.7in /  33477.4hPa Calm     93% 0.0in /  0mm WeatherDisplay:10.37 W/m2 RA
00:06 1.2 °F /  -17.1 °C 0.4 °F /  -17.6 °C 988.7in /  33477.4hPa Calm     94% 0.0in /  0mm WeatherDisplay:10.37 W/m2 RA
00:11 1.3 °F /  -17.1 °C 0.4 °F /  -17.6 °C 988.7in /  33477.4hPa South 3.1mph /  5km/h 6.4mph /  10.3km/h 94% 0.0in /  0mm WeatherDisplay:10.37 W/m2 FEW
00:16 1.7 °F /  -16.8 °C 0.8 °F /  -17.3 °C 988.7in /  33477.4hPa South 1.4mph /  2.3km/h 5.6mph /  9km/h 94% 0.0in /  0mm WeatherDisplay:10.37 W/m2 FEW
00:22 2.2 °F /  -16.6 °C 1.3 °F /  -17.1 °C 988.7in /  33477.4hPa South 1.9mph /  3.1km/h 9.3mph /  15km/h 94% 0.0in /  0mm WeatherDisplay:10.37 W/m2 FEW
00:26 2.5 °F /  -16.4 °C 1.5 °F /  -16.9 °C 989.1in /  33490.9hPa Calm     93% 0.0in /  0mm WeatherDisplay:10.37 W/m2 FEW
00:31 2.7 °F /  -16.3 °C 1.8 °F /  -16.8 °C 989.1in /  33490.9hPa South 1.0mph /  1.6km/h 3.7mph /  6km/h 94% 0.0in /  0mm WeatherDisplay:10.37 W/m2 FEW
00:36 2.8 °F /  -16.2 °C 1.9 °F /  -16.7 °C 989.1in /  33490.9hPa South 2.6mph /  4.2km/h 5.6mph /  9km/h 94% 0.0in /  0mm WeatherDisplay:10.37 W/m2 FEW
00:40 2.8 °F /  -16.2 °C 1.9 °F /  -16.7 °C 989.1in /  33490.9hPa Calm     94% 0.0in /  0mm WeatherDisplay:10.37 W/m2 FEW
00:45 2.8 °F /  -16.2 °C 1.9 °F /  -16.7 °C 989.1in /  33490.9hPa Calm     94% 0.0in /  0mm WeatherDisplay:10.37 W/m2 FEW
00:48 2.8 °F /  -16.2 °C 1.9 °F /  -16.7 °C 989.1in /  33490.9hPa Calm   1.9mph /  3.1km/h 94% 0.0in /  0mm WeatherDisplay:10.37 W/m2 FEW
00:53 2.9 °F /  -16.2 °C 2.0 °F /  -16.7 °C 989.1in /  33490.9hPa SW 1.1mph /  1.8km/h 7.4mph /  11.9km/h 94% 0.0in /  0mm WeatherDisplay:10.37 W/m2 FEW
00:54 2.9 °F /  -16.2 °C 2.0 °F /  -16.7 °C 989.1in /  33490.9hPa Calm     94% 0.0in /  0mm WeatherDisplay:10.37 W/m2 FEW
00:59 2.8 °F /  -16.2 °C 1.9 °F /  -16.7 °C 989.1in /  33490.9hPa Calm     94% 0.0in /  0mm WeatherDisplay:10.37 W/m2 FEW
01:04 2.8 °F /  -16.2 °C 1.9 °F /  -16.7 °C 989.1in /  33490.9hPa Calm     94% 0.0in /  0mm WeatherDisplay:10.37 W/m2 FEW
01:05 2.8 °F /  -16.2 °C 1.9 °F /  -16.7 °C 989.1in /  33490.9hPa South 1.1mph /  1.8km/h 4.8mph /  7.7km/h 94% 0.0in /  0mm WeatherDisplay:10.37 W/m2 FEW
01:10 2.9 °F /  -16.2 °C 2.1 °F /  -16.6 °C 989.1in /  33490.9hPa WNW 0.3mph /  0.5km/h 3.7mph /  6km/h 94% 0.0in /  0mm WeatherDisplay:10.37 W/m2 FEW
01:11 3.0 °F /  -16.1 °C 2.1 °F /  -16.6 °C 989.1in /  33490.9hPa Calm   1.9mph /  3.1km/h 94% 0.0in /  0mm WeatherDisplay:10.37 W/m2 FEW
01:17 3.1 °F /  -16.1 °C 2.2 °F /  -16.6 °C 989.1in /  33490.9hPa Calm     94% 0.3in /  7.62mm WeatherDisplay:10.37 W/m2 RA
01:21 3.1 °F /  -16.1 °C 2.2 °F /  -16.6 °C 989.1in /  33490.9hPa SSE 4.2mph /  6.8km/h 5.6mph /  9km/h 94% 0.3in /  7.62mm WeatherDisplay:10.37 W/m2 RA
01:26 3.1 °F /  -16.1 °C 2.2 °F /  -16.6 °C 989.1in /  33490.9hPa SSE 3.2mph /  5.1km/h 9.3mph /  15km/h 94% 0.5in /  12.7mm WeatherDisplay:10.37 W/m2 RA
01:29 3.0 °F /  -16.1 °C 2.1 °F /  -16.6 °C 989.1in /  33490.9hPa SSE 3.1mph /  5km/h 9.3mph /  15km/h 94% 0.5in /  12.7mm WeatherDisplay:10.37 W/m2 RA
01:34 3.2 °F /  -16 °C 2.3 °F /  -16.5 °C 989.1in /  33490.9hPa ENE 1.8mph /  2.9km/h 7.4mph /  11.9km/h 94% 0.5in /  12.7mm WeatherDisplay:10.37 W/m2 RA
01:39 3.2 °F /  -16 °C 2.3 °F /  -16.5 °C 989.1in /  33490.9hPa East 0.3mph /  0.5km/h 3.7mph /  6km/h 94% 0.5in /  12.7mm WeatherDisplay:10.37 W/m2 FEW
01:42 3.2 °F /  -16 °C 2.3 °F /  -16.5 °C 989.1in /  33490.9hPa East 0.8mph /  1.3km/h 5.6mph /  9km/h 94% 0.5in /  12.7mm WeatherDisplay:10.37 W/m2 FEW
01:48 3.2 °F /  -16 °C 2.3 °F /  -16.5 °C 988.7in /  33477.4hPa ESE 1.3mph /  2.1km/h 5.6mph /  9km/h 94% 0.5in /  12.7mm WeatherDisplay:10.37 W/m2 FEW
01:53 3.1 °F /  -16.1 °C 2.2 °F /  -16.6 °C 988.7in /  33477.4hPa Calm     94% 0.5in /  12.7mm WeatherDisplay:10.37 W/m2 FEW
01:56 3.1 °F /  -16.1 °C 2.2 °F /  -16.6 °C 988.7in /  33477.4hPa Calm     94% 0.5in /  12.7mm WeatherDisplay:10.37 W/m2 FEW
02:01 3.1 °F /  -16.1 °C 2.2 °F /  -16.6 °C 988.7in /  33477.4hPa SSE 0.5mph /  0.8km/h 5.6mph /  9km/h 94% 0.5in /  12.7mm WeatherDisplay:10.37 W/m2 FEW
02:06 3.2 °F /  -16 °C 2.3 °F /  -16.5 °C 988.7in /  33477.4hPa WSW 3.1mph /  5km/h 13.0mph /  20.9km/h 94% 0.5in /  12.7mm WeatherDisplay:10.37 W/m2 FEW
02:07 3.2 °F /  -16 °C 2.3 °F /  -16.5 °C 988.7in /  33477.4hPa SSE 1.1mph /  1.8km/h 5.6mph /  9km/h 94% 0.5in /  12.7mm WeatherDisplay:10.37 W/m2 FEW
02:12 3.2 °F /  -16 °C 2.2 °F /  -16.6 °C 988.7in /  33477.4hPa SE 0.3mph /  0.5km/h 8.0mph /  12.9km/h 93% 0.5in /  12.7mm WeatherDisplay:10.37 W/m2 FEW
02:15 3.2 °F /  -16 °C 2.3 °F /  -16.5 °C 988.7in /  33477.4hPa South 1.1mph /  1.8km/h 5.6mph /  9km/h 94% 0.3in /  7.62mm WeatherDisplay:10.37 W/m2 FEW
02:21 3.2 °F /  -16 °C 2.3 °F /  -16.5 °C 988.7in /  33477.4hPa SE 1.8mph /  2.9km/h 8.0mph /  12.9km/h 94% 0.3in /  7.62mm WeatherDisplay:10.37 W/m2 FEW
02:24 3.2 °F /  -16 °C 2.2 °F /  -16.6 °C 988.7in /  33477.4hPa SE 0.8mph /  1.3km/h 5.6mph /  9km/h 93% 0.3in /  7.62mm WeatherDisplay:10.37 W/m2 FEW
02:30 3.3 °F /  -15.9 °C 2.4 °F /  -16.4 °C 988.7in /  33477.4hPa SW 1.4mph /  2.3km/h 5.6mph /  9km/h 94% 0.0in /  0mm WeatherDisplay:10.37 W/m2 FEW
02:35 3.2 °F /  -16 °C 2.3 °F /  -16.5 °C 989.1in /  33490.9hPa Calm     94% 0.0in /  0mm WeatherDisplay:10.37 W/m2 FEW
02:40 3.1 °F /  -16.1 °C 2.2 °F /  -16.6 °C 989.1in /  33490.9hPa West 1.9mph /  3.1km/h 5.6mph /  9km/h 94% 0.0in /  0mm WeatherDisplay:10.37 W/m2 FEW
02:45 3.1 °F /  -16.1 °C 2.2 °F /  -16.6 °C 989.1in /  33490.9hPa South 3.7mph /  6km/h 16.7mph /  26.9km/h 94% 0.0in /  0mm WeatherDisplay:10.37 W/m2 FEW
02:50 3.2 °F /  -16 °C 2.3 °F /  -16.5 °C 989.1in /  33490.9hPa Calm     94% 0.0in /  0mm WeatherDisplay:10.37 W/m2 FEW
02:55 3.3 °F /  -15.9 °C 2.4 °F /  -16.4 °C 989.1in /  33490.9hPa SSW 0.8mph /  1.3km/h 7.4mph /  11.9km/h 94% 0.0in /  0mm WeatherDisplay:10.37 W/m2 FEW
02:57 3.3 °F /  -15.9 °C 2.4 °F /  -16.4 °C 989.1in /  33490.9hPa SSW 0.3mph /  0.5km/h 3.2mph /  5.1km/h 94% 0.0in /  0mm WeatherDisplay:10.37 W/m2 FEW
03:03 3.2 °F /  -16 °C 2.3 °F /  -16.5 °C 989.1in /  33490.9hPa SSE 1.0mph /  1.6km/h 5.6mph /  9km/h 94% 0.0in /  0mm WeatherDisplay:10.37 W/m2 FEW
03:04 3.2 °F /  -16 °C 2.3 °F /  -16.5 °C 989.1in /  33490.9hPa SSE 0.8mph /  1.3km/h 5.6mph /  9km/h 94% 0.0in /  0mm WeatherDisplay:10.37 W/m2 FEW
03:10 3.3 °F /  -15.9 °C 2.4 °F /  -16.4 °C 989.1in /  33490.9hPa SE 1.3mph /  2.1km/h 8.0mph /  12.9km/h 94% 0.0in /  0mm WeatherDisplay:10.37 W/m2 FEW
03:12 3.3 °F /  -15.9 °C 2.4 °F /  -16.4 °C 989.1in /  33490.9hPa South 0.2mph /  0.3km/h 7.4mph /  11.9km/h 94% 0.0in /  0mm WeatherDisplay:10.37 W/m2 FEW
03:18 3.3 °F /  -15.9 °C 2.4 °F /  -16.4 °C 989.1in /  33490.9hPa SSE 2.7mph /  4.3km/h 7.4mph /  11.9km/h 94% 0.0in /  0mm WeatherDisplay:10.37 W/m2 FEW
03:23 3.3 °F /  -15.9 °C 2.4 °F /  -16.4 °C 989.1in /  33490.9hPa South 1.6mph /  2.6km/h 9.3mph /  15km/h 94% 0.0in /  0mm WeatherDisplay:10.37 W/m2 FEW
03:26 3.2 °F /  -16 °C 2.3 °F /  -16.5 °C 989.1in /  33490.9hPa ESE 2.1mph /  3.4km/h 6.4mph /  10.3km/h 94% 0.0in /  0mm WeatherDisplay:10.37 W/m2 FEW
03:31 3.3 °F /  -15.9 °C 2.4 °F /  -16.4 °C 989.1in /  33490.9hPa SE 0.2mph /  0.3km/h 1.9mph /  3.1km/h 94% 0.0in /  0mm WeatherDisplay:10.37 W/m2 FEW
03:33 3.3 °F /  -15.9 °C 2.4 °F /  -16.4 °C 988.7in /  33477.4hPa South 1.4mph /  2.3km/h 7.4mph /  11.9km/h 94% 0.0in /  0mm WeatherDisplay:10.37 W/m2 FEW
03:38 3.2 °F /  -16 °C 2.3 °F /  -16.5 °C 989.1in /  33490.9hPa ESE 1.6mph /  2.6km/h 11.1mph /  17.9km/h 94% 0.0in /  0mm WeatherDisplay:10.37 W/m2 FEW
03:40 3.2 °F /  -16 °C 2.3 °F /  -16.5 °C 988.7in /  33477.4hPa Calm   7.4mph /  11.9km/h 94% 0.0in /  0mm WeatherDisplay:10.37 W/m2 FEW
03:45 3.3 °F /  -15.9 °C 2.4 °F /  -16.4 °C 988.7in /  33477.4hPa SSW 3.1mph /  5km/h 5.6mph /  9km/h 94% 0.0in /  0mm WeatherDisplay:10.37 W/m2 FEW
03:49 3.3 °F /  -15.9 °C 2.4 °F /  -16.4 °C 988.7in /  33477.4hPa Calm     94% 0.0in /  0mm WeatherDisplay:10.37 W/m2 FEW
03:54 3.2 °F /  -16 °C 2.3 °F /  -16.5 °C 988.7in /  33477.4hPa SE 0.2mph /  0.3km/h 1.9mph /  3.1km/h 94% 0.0in /  0mm WeatherDisplay:10.37 W/m2 FEW
03:59 3.2 °F /  -16 °C 2.3 °F /  -16.5 °C 988.7in /  33477.4hPa SSW 4.5mph /  7.2km/h 16.1mph /  25.9km/h 94% 0.0in /  0mm WeatherDisplay:10.37 W/m2 FEW
04:03 3.3 °F /  -15.9 °C 2.4 °F /  -16.4 °C 988.7in /  33477.4hPa Calm   1.9mph /  3.1km/h 94% 0.0in /  0mm WeatherDisplay:10.37 W/m2 FEW
04:08 3.3 °F /  -15.9 °C 2.4 °F /  -16.4 °C 988.7in /  33477.4hPa SSE 4.8mph /  7.7km/h 14.8mph /  23.8km/h 94% 0.0in /  0mm WeatherDisplay:10.37 W/m2 FEW
04:11 3.3 °F /  -15.9 °C 2.4 °F /  -16.4 °C 988.7in /  33477.4hPa SE 2.7mph /  4.3km/h 14.8mph /  23.8km/h 94% 0.0in /  0mm WeatherDisplay:10.37 W/m2 FEW
04:17 3.3 °F /  -15.9 °C 2.4 °F /  -16.4 °C 988.4in /  33467.2hPa South 3.4mph /  5.5km/h 7.4mph /  11.9km/h 94% 0.0in /  0mm WeatherDisplay:10.37 W/m2 FEW
04:22 3.3 °F /  -15.9 °C 2.4 °F /  -16.4 °C 988.4in /  33467.2hPa SSE 0.5mph /  0.8km/h 3.7mph /  6km/h 94% 0.0in /  0mm WeatherDisplay:10.37 W/m2 FEW
04:27 3.2 °F /  -16 °C 2.3 °F /  -16.5 °C 988.4in /  33467.2hPa Calm   7.4mph /  11.9km/h 94% 0.0in /  0mm WeatherDisplay:10.37 W/m2 FEW
04:32 3.2 °F /  -16 °C 2.3 °F /  -16.5 °C 988.4in /  33467.2hPa SSE 0.5mph /  0.8km/h   94% 0.0in /  0mm WeatherDisplay:10.37 W/m2 FEW
04:37 3.2 °F /  -16 °C 2.3 °F /  -16.5 °C 988.4in /  33467.2hPa Calm   1.9mph /  3.1km/h 94% 0.0in /  0mm WeatherDisplay:10.37 W/m2 FEW
04:43 3.2 °F /  -16 °C 2.3 °F /  -16.5 °C 988.4in /  33467.2hPa SE 1.1mph /  1.8km/h 5.6mph /  9km/h 94% 0.0in /  0mm WeatherDisplay:10.37 W/m2 FEW
04:48 3.2 °F /  -16 °C 2.3 °F /  -16.5 °C 988.4in /  33467.2hPa Calm   3.7mph /  6km/h 94% 0.0in /  0mm WeatherDisplay:10.37 W/m2 FEW
04:53 3.1 °F /  -16.1 °C 2.2 °F /  -16.6 °C 988.4in /  33467.2hPa SE 1.4mph /  2.3km/h 3.7mph /  6km/h 94% 0.0in /  0mm WeatherDisplay:10.37 W/m2 FEW
04:59 3.1 °F /  -16.1 °C 2.2 °F /  -16.6 °C 988.4in /  33467.2hPa ESE 0.8mph /  1.3km/h 11.1mph /  17.9km/h 94% 0.0in /  0mm WeatherDisplay:10.37 W/m2 FEW
05:04 3.1 °F /  -16.1 °C 2.2 °F /  -16.6 °C 988.4in /  33467.2hPa SSE 1.0mph /  1.6km/h 7.4mph /  11.9km/h 94% 0.0in /  0mm WeatherDisplay:10.37 W/m2 FEW
05:09 3.1 °F /  -16.1 °C 2.1 °F /  -16.6 °C 988.4in /  33467.2hPa Calm     93% 0.3in /  7.62mm WeatherDisplay:10.37 W/m2 RA
05:20 3.1 °F /  -16.1 °C 2.1 °F /  -16.6 °C 988.4in /  33467.2hPa Calm   5.6mph /  9km/h 93% 0.3in /  7.62mm WeatherDisplay:10.37 W/m2 FEW
05:25 3.2 °F /  -16 °C 2.3 °F /  -16.5 °C 988.0in /  33453.7hPa SSE 5.8mph /  9.3km/h 9.7mph /  15.6km/h 94% 0.3in /  7.62mm WeatherDisplay:10.37 W/m2 FEW
05:30 3.2 °F /  -16 °C 2.3 °F /  -16.5 °C 988.4in /  33467.2hPa North 1.9mph /  3.1km/h 5.6mph /  9km/h 94% 0.3in /  7.62mm WeatherDisplay:10.37 W/m2 FEW
05:35 3.2 °F /  -16 °C 2.3 °F /  -16.5 °C 988.4in /  33467.2hPa SSW 0.8mph /  1.3km/h 16.7mph /  26.9km/h 94% 0.3in /  7.62mm WeatherDisplay:10.37 W/m2 FEW
05:40 3.2 °F /  -16 °C 2.3 °F /  -16.5 °C 988.4in /  33467.2hPa NNE 3.9mph /  6.3km/h 5.6mph /  9km/h 94% 0.3in /  7.62mm WeatherDisplay:10.37 W/m2 FEW
05:45 3.2 °F /  -16 °C 2.3 °F /  -16.5 °C 988.4in /  33467.2hPa SE 0.6mph /  1km/h   94% 0.3in /  7.62mm WeatherDisplay:10.37 W/m2 FEW
05:50 3.1 °F /  -16.1 °C 2.1 °F /  -16.6 °C 988.4in /  33467.2hPa SSW 0.6mph /  1km/h   93% 0.3in /  7.62mm WeatherDisplay:10.37 W/m2 FEW
06:00 3.1 °F /  -16.1 °C 2.1 °F /  -16.6 °C 988.7in /  33477.4hPa Calm     93% 0.3in /  7.62mm WeatherDisplay:10.37 W/m2 FEW
06:06 3.0 °F /  -16.1 °C 2.0 °F /  -16.7 °C 988.7in /  33477.4hPa SW 4.8mph /  7.7km/h 14.8mph /  23.8km/h 93% 0.0in /  0mm WeatherDisplay:10.37 W/m2 FEW
06:11 3.0 °F /  -16.1 °C 2.0 °F /  -16.7 °C 988.7in /  33477.4hPa South 4.7mph /  7.6km/h 5.6mph /  9km/h 93% 0.0in /  0mm WeatherDisplay:10.37 W/m2 FEW
06:13 2.9 °F /  -16.2 °C 1.9 °F /  -16.7 °C 988.7in /  33477.4hPa Calm   5.6mph /  9km/h 93% 0.0in /  0mm WeatherDisplay:10.37 W/m2 FEW
06:18 2.9 °F /  -16.2 °C 2.1 °F /  -16.6 °C 988.7in /  33477.4hPa SSE 1.3mph /  2.1km/h 14.8mph /  23.8km/h 94% 0.0in /  0mm WeatherDisplay:10.37 W/m2 FEW
06:28 2.8 °F /  -16.2 °C 1.9 °F /  -16.7 °C 988.7in /  33477.4hPa South 2.9mph /  4.7km/h 9.3mph /  15km/h 94% 0.0in /  0mm WeatherDisplay:10.37 W/m2 FEW
06:29 2.8 °F /  -16.2 °C 1.9 °F /  -16.7 °C 988.7in /  33477.4hPa South 1.8mph /  2.9km/h 5.6mph /  9km/h 94% 0.0in /  0mm WeatherDisplay:10.37 W/m2 FEW
06:34 2.8 °F /  -16.2 °C 1.9 °F /  -16.7 °C 988.7in /  33477.4hPa Calm     94% 0.0in /  0mm WeatherDisplay:10.37 W/m2 FEW
06:41 2.9 °F /  -16.2 °C 2.1 °F /  -16.6 °C 988.7in /  33477.4hPa SE 1.4mph /  2.3km/h 8.0mph /  12.9km/h 94% 0.0in /  0mm WeatherDisplay:10.37 W/m2 FEW
06:46 2.9 °F /  -16.2 °C 2.1 °F /  -16.6 °C 989.1in /  33490.9hPa South 1.0mph /  1.6km/h 5.6mph /  9km/h 94% 0.0in /  0mm WeatherDisplay:10.37 W/m2 FEW
06:51 2.9 °F /  -16.2 °C 2.0 °F /  -16.7 °C 989.1in /  33490.9hPa Calm     94% 0.0in /  0mm WeatherDisplay:10.37 W/m2 FEW
06:56 2.8 °F /  -16.2 °C 1.8 °F /  -16.8 °C 989.1in /  33490.9hPa SSE 0.2mph /  0.3km/h 1.9mph /  3.1km/h 93% 0.0in /  0mm WeatherDisplay:10.37 W/m2 FEW
07:00 2.7 °F /  -16.3 °C 1.7 °F /  -16.8 °C 989.1in /  33490.9hPa Calm     93% 0.0in /  0mm WeatherDisplay:10.37 W/m2 FEW
07:04 2.7 °F /  -16.3 °C 1.7 °F /  -16.8 °C 989.1in /  33490.9hPa Calm     93% 0.0in /  0mm WeatherDisplay:10.37 W/m2 FEW
07:09 2.7 °F /  -16.3 °C 1.7 °F /  -16.8 °C 989.1in /  33490.9hPa ESE 0.2mph /  0.3km/h 1.9mph /  3.1km/h 93% 0.0in /  0mm WeatherDisplay:10.37 W/m2 FEW
07:10 2.7 °F /  -16.3 °C 1.7 °F /  -16.8 °C 989.1in /  33490.9hPa Calm     93% 0.0in /  0mm WeatherDisplay:10.37 W/m2 FEW
07:20 2.6 °F /  -16.3 °C 1.7 °F /  -16.8 °C 989.1in /  33490.9hPa Calm     94% 0.0in /  0mm WeatherDisplay:10.37 W/m2 FEW
07:25 2.5 °F /  -16.4 °C 1.5 °F /  -16.9 °C 989.4in /  33501.1hPa Calm     93% 0.0in /  0mm WeatherDisplay:10.37 W/m2 FEW
07:30 2.4 °F /  -16.4 °C 1.4 °F /  -17 °C 989.4in /  33501.1hPa Calm     93% 0.0in /  0mm WeatherDisplay:10.37 W/m2 FEW
07:31 2.4 °F /  -16.4 °C 1.4 °F /  -17 °C 989.4in /  33501.1hPa Calm     93% 0.0in /  0mm WeatherDisplay:10.37 W/m2 FEW
07:36 2.4 °F /  -16.4 °C 1.4 °F /  -17 °C 989.4in /  33501.1hPa Calm     93% 0.0in /  0mm WeatherDisplay:10.37 W/m2 FEW
07:41 2.4 °F /  -16.4 °C 1.4 °F /  -17 °C 989.4in /  33501.1hPa Calm     93% 0.0in /  0mm WeatherDisplay:10.37 W/m2 FEW
07:46 2.4 °F /  -16.4 °C 1.4 °F /  -17 °C 989.4in /  33501.1hPa Calm     93% 0.0in /  0mm WeatherDisplay:10.37 W/m2 FEW
07:51 2.4 °F /  -16.4 °C 1.4 °F /  -17 °C 989.4in /  33501.1hPa Calm     93% 0.0in /  0mm WeatherDisplay:10.37 W/m2 FEW
07:53 2.4 °F /  -16.4 °C 1.4 °F /  -17 °C 989.4in /  33501.1hPa Calm     93% 0.0in /  0mm WeatherDisplay:10.37 W/m2 FEW
07:58 2.3 °F /  -16.5 °C 1.3 °F /  -17.1 °C 989.7in /  33511.2hPa Calm     93% 0.0in /  0mm WeatherDisplay:10.37 W/m2 FEW
08:08 2.3 °F /  -16.5 °C 1.3 °F /  -17.1 °C 989.7in /  33511.2hPa Calm     93% 0.0in /  0mm WeatherDisplay:10.37 W/m2 FEW
08:09 2.3 °F /  -16.5 °C 1.3 °F /  -17.1 °C 989.7in /  33511.2hPa Calm     93% 0.0in /  0mm WeatherDisplay:10.37 W/m2 FEW
08:10 2.3 °F /  -16.5 °C 1.3 °F /  -17.1 °C 990.1in /  33524.8hPa SSE 1.1mph /  1.8km/h 5.6mph /  9km/h 93% 0.0in /  0mm WeatherDisplay:10.37 W/m2 FEW
08:16 2.3 °F /  -16.5 °C 1.3 °F /  -17.1 °C 990.1in /  33524.8hPa Calm   1.9mph /  3.1km/h 93% 0.0in /  0mm WeatherDisplay:10.37 W/m2 FEW
08:19 2.4 °F /  -16.4 °C 1.4 °F /  -17 °C 990.1in /  33524.8hPa Calm     93% 0.0in /  0mm WeatherDisplay:10.37 W/m2 FEW
08:29 2.4 °F /  -16.4 °C 1.4 °F /  -17 °C 990.1in /  33524.8hPa Calm     93% 0.0in /  0mm WeatherDisplay:10.37 W/m2 FEW
08:39 2.4 °F /  -16.4 °C 1.4 °F /  -17 °C 990.4in /  33534.9hPa Calm     93% 0.0in /  0mm WeatherDisplay:10.37 W/m2 FEW
08:44 2.4 °F /  -16.4 °C 1.4 °F /  -17 °C 990.4in /  33534.9hPa Calm     93% 0.0in /  0mm WeatherDisplay:10.37 W/m2 FEW
08:46 2.4 °F /  -16.4 °C 1.4 °F /  -17 °C 990.4in /  33534.9hPa Calm     93% 0.0in /  0mm WeatherDisplay:10.37 W/m2 FEW
08:51 2.5 °F /  -16.4 °C 1.5 °F /  -16.9 °C 990.4in /  33534.9hPa Calm     93% 0.0in /  0mm WeatherDisplay:10.37 W/m2 FEW
08:56 2.4 °F /  -16.4 °C 1.4 °F /  -17 °C 990.7in /  33545.1hPa SSE 0.2mph /  0.3km/h   93% 0.0in /  0mm WeatherDisplay:10.37 W/m2 FEW
09:01 2.4 °F /  -16.4 °C 1.4 °F /  -17 °C 990.7in /  33545.1hPa SSE 0.5mph /  0.8km/h 3.7mph /  6km/h 93% 0.0in /  0mm WeatherDisplay:10.37 W/m2 FEW
09:06 2.4 °F /  -16.4 °C 1.4 °F /  -17 °C 990.7in /  33545.1hPa Calm     93% 0.0in /  0mm WeatherDisplay:10.37 W/m2 FEW
09:11 2.6 °F /  -16.3 °C 1.7 °F /  -16.8 °C 991.1in /  33558.6hPa Calm     94% 0.0in /  0mm WeatherDisplay:10.37 W/m2 FEW
09:14 2.6 °F /  -16.3 °C 1.7 °F /  -16.8 °C 991.1in /  33558.6hPa Calm     94% 0.0in /  0mm WeatherDisplay:10.37 W/m2 FEW
09:19 2.7 °F /  -16.3 °C 1.8 °F /  -16.8 °C 991.4in /  33568.8hPa Calm     94% 0.0in /  0mm WeatherDisplay:10.37 W/m2 FEW
09:24 2.7 °F /  -16.3 °C 1.7 °F /  -16.8 °C 991.4in /  33568.8hPa Calm     93% 0.0in /  0mm WeatherDisplay:10.37 W/m2 FEW
09:29 2.7 °F /  -16.3 °C 1.7 °F /  -16.8 °C 991.8in /  33582.3hPa Calm     93% 0.0in /  0mm WeatherDisplay:10.37 W/m2 FEW
09:30 2.7 °F /  -16.3 °C 1.7 °F /  -16.8 °C 991.8in /  33582.3hPa Calm     93% 0.0in /  0mm WeatherDisplay:10.37 W/m2 FEW
09:35 2.9 °F /  -16.2 °C 2.0 °F /  -16.7 °C 991.8in /  33582.3hPa West 0.6mph /  1km/h 1.9mph /  3.1km/h 94% 0.0in /  0mm WeatherDisplay:10.37 W/m2 FEW
09:36 2.9 °F /  -16.2 °C 2.0 °F /  -16.7 °C 991.8in /  33582.3hPa West 0.3mph /  0.5km/h 1.9mph /  3.1km/h 94% 0.0in /  0mm WeatherDisplay:10.37 W/m2 FEW
09:41 3.0 °F /  -16.1 °C 2.1 °F /  -16.6 °C 991.8in /  33582.3hPa WNW 0.3mph /  0.5km/h   94% 0.0in /  0mm WeatherDisplay:10.37 W/m2 FEW
09:48 3.1 °F /  -16.1 °C 2.2 °F /  -16.6 °C 992.1in /  33592.5hPa South 1.4mph /  2.3km/h   94% 0.0in /  0mm WeatherDisplay:10.37 W/m2 FEW
09:58 3.1 °F /  -16.1 °C 2.2 °F /  -16.6 °C 992.4in /  33602.7hPa SW 6.1mph /  9.8km/h 13.0mph /  20.9km/h 94% 0.3in /  7.62mm WeatherDisplay:10.37 W/m2 RA
10:03 2.9 °F /  -16.2 °C 2.1 °F /  -16.6 °C 992.8in /  33616.2hPa NW 1.9mph /  3.1km/h 18.5mph /  29.8km/h 94% 0.3in /  7.62mm WeatherDisplay:10.37 W/m2 RA
10:08 2.7 °F /  -16.3 °C 1.8 °F /  -16.8 °C 992.8in /  33616.2hPa West 5.8mph /  9.3km/h 11.1mph /  17.9km/h 94% 0.3in /  7.62mm WeatherDisplay:10.37 W/m2 FEW
10:13 2.6 °F /  -16.3 °C 1.7 °F /  -16.8 °C 993.1in /  33626.4hPa NW 1.4mph /  2.3km/h 11.3mph /  18.2km/h 94% 0.3in /  7.62mm WeatherDisplay:10.37 W/m2 FEW
10:18 2.5 °F /  -16.4 °C 2.3 °F /  -16.5 °C 993.5in /  33639.9hPa West 1.3mph /  2.1km/h 3.7mph /  6km/h 99% 0.3in /  7.62mm WeatherDisplay:10.37 W/m2 FEW
10:19 2.4 °F /  -16.4 °C 1.4 °F /  -17 °C 993.5in /  33639.9hPa SSW 1.9mph /  3.1km/h 5.6mph /  9km/h 93% 0.3in /  7.62mm WeatherDisplay:10.37 W/m2 FEW
10:24 2.4 °F /  -16.4 °C 1.4 °F /  -17 °C 993.5in /  33639.9hPa West 3.7mph /  6km/h 5.6mph /  9km/h 93% 0.3in /  7.62mm WeatherDisplay:10.37 W/m2 FEW
10:28 2.3 °F /  -16.5 °C 1.3 °F /  -17.1 °C 993.5in /  33639.9hPa WSW 0.8mph /  1.3km/h 3.7mph /  6km/h 93% 0.3in /  7.62mm WeatherDisplay:10.37 W/m2 FEW
10:39 2.3 °F /  -16.5 °C 1.4 °F /  -17 °C 993.8in /  33650.1hPa Calm     94% 0.3in /  7.62mm WeatherDisplay:10.37 W/m2 FEW
10:40 2.3 °F /  -16.5 °C 1.4 °F /  -17 °C 993.8in /  33650.1hPa West 2.4mph /  3.9km/h 3.7mph /  6km/h 94% 0.3in /  7.62mm WeatherDisplay:10.37 W/m2 FEW
10:44 2.3 °F /  -16.5 °C 1.4 °F /  -17 °C 993.8in /  33650.1hPa West 1.6mph /  2.6km/h 13.0mph /  20.9km/h 94% 0.3in /  7.62mm WeatherDisplay:10.37 W/m2 FEW
10:49 2.3 °F /  -16.5 °C 1.4 °F /  -17 °C 993.8in /  33650.1hPa NNW 3.4mph /  5.5km/h 5.6mph /  9km/h 94% 0.3in /  7.62mm WeatherDisplay:10.37 W/m2 FEW
10:54 2.2 °F /  -16.6 °C 1.3 °F /  -17.1 °C 994.1in /  33660.2hPa West 0.2mph /  0.3km/h 1.9mph /  3.1km/h 94% 0.3in /  7.62mm WeatherDisplay:10.37 W/m2 FEW
10:59 2.2 °F /  -16.6 °C 1.3 °F /  -17.1 °C 994.1in /  33660.2hPa West 0.8mph /  1.3km/h 5.6mph /  9km/h 94% 0.0in /  0mm WeatherDisplay:10.37 W/m2 FEW
11:04 2.2 °F /  -16.6 °C 1.3 °F /  -17.1 °C 994.5in /  33673.8hPa Calm   1.9mph /  3.1km/h 94% 0.0in /  0mm WeatherDisplay:10.37 W/m2 FEW
11:09 2.2 °F /  -16.6 °C 1.3 °F /  -17.1 °C 994.5in /  33673.8hPa SSW 1.8mph /  2.9km/h 11.1mph /  17.9km/h 94% 0.0in /  0mm WeatherDisplay:10.37 W/m2 FEW
11:12 2.2 °F /  -16.6 °C 1.3 °F /  -17.1 °C 994.8in /  33683.9hPa South 1.3mph /  2.1km/h 11.1mph /  17.9km/h 94% 0.0in /  0mm WeatherDisplay:10.37 W/m2 FEW
11:17 2.2 °F /  -16.6 °C 1.3 °F /  -17.1 °C 994.8in /  33683.9hPa Calm   5.6mph /  9km/h 94% 0.0in /  0mm WeatherDisplay:10.37 W/m2 FEW
11:18 2.2 °F /  -16.6 °C 1.3 °F /  -17.1 °C 994.8in /  33683.9hPa West 0.3mph /  0.5km/h 1.6mph /  2.6km/h 94% 0.0in /  0mm WeatherDisplay:10.37 W/m2 FEW
11:23 2.2 °F /  -16.6 °C 1.3 °F /  -17.1 °C 994.8in /  33683.9hPa NNW 2.3mph /  3.7km/h 5.6mph /  9km/h 94% 0.0in /  0mm WeatherDisplay:10.37 W/m2 FEW
11:28 2.2 °F /  -16.6 °C 1.3 °F /  -17.1 °C 995.1in /  33694.1hPa SSW 0.3mph /  0.5km/h 5.6mph /  9km/h 94% 0.0in /  0mm WeatherDisplay:10.37 W/m2 FEW
11:33 2.2 °F /  -16.6 °C 1.3 °F /  -17.1 °C 995.1in /  33694.1hPa WSW 4.3mph /  6.9km/h 6.4mph /  10.3km/h 94% 0.0in /  0mm WeatherDisplay:10.37 W/m2 FEW
11:43 2.2 °F /  -16.6 °C 1.3 °F /  -17.1 °C 995.5in /  33707.6hPa Calm   7.4mph /  11.9km/h 94% 0.0in /  0mm WeatherDisplay:10.37 W/m2 FEW
11:48 2.2 °F /  -16.6 °C 1.2 °F /  -17.1 °C 995.5in /  33707.6hPa NNW 1.0mph /  1.6km/h 5.6mph /  9km/h 93% 0.0in /  0mm WeatherDisplay:10.37 W/m2 FEW
11:54 2.2 °F /  -16.6 °C 1.3 °F /  -17.1 °C 995.5in /  33707.6hPa NW 1.9mph /  3.1km/h 5.6mph /  9km/h 94% 0.0in /  0mm WeatherDisplay:10.37 W/m2 FEW
11:58 2.2 °F /  -16.6 °C 1.2 °F /  -17.1 °C 995.8in /  33717.8hPa WNW 1.8mph /  2.9km/h 6.4mph /  10.3km/h 93% 0.0in /  0mm WeatherDisplay:10.37 W/m2 FEW
12:03 2.2 °F /  -16.6 °C 1.2 °F /  -17.1 °C 995.8in /  33717.8hPa SW 1.1mph /  1.8km/h   93% 0.0in /  0mm WeatherDisplay:10.37 W/m2 FEW
12:08 2.2 °F /  -16.6 °C 1.2 °F /  -17.1 °C 995.8in /  33717.8hPa WSW 0.3mph /  0.5km/h 3.7mph /  6km/h 93% 0.0in /  0mm WeatherDisplay:10.37 W/m2 FEW
12:15 2.2 °F /  -16.6 °C 1.2 °F /  -17.1 °C 995.8in /  33717.8hPa WSW 1.9mph /  3.1km/h 3.2mph /  5.1km/h 93% 0.0in /  0mm WeatherDisplay:10.37 W/m2 FEW
12:21 2.2 °F /  -16.6 °C 1.2 °F /  -17.1 °C 995.8in /  33717.8hPa Calm     93% 0.0in /  0mm WeatherDisplay:10.37 W/m2 FEW
12:26 2.3 °F /  -16.5 °C 1.3 °F /  -17.1 °C 996.2in /  33731.3hPa WNW 3.4mph /  5.5km/h 14.8mph /  23.8km/h 93% 0.0in /  0mm WeatherDisplay:10.37 W/m2 FEW
12:32 2.2 °F /  -16.6 °C 1.2 °F /  -17.1 °C 996.2in /  33731.3hPa WSW 0.2mph /  0.3km/h 3.2mph /  5.1km/h 93% 0.0in /  0mm WeatherDisplay:10.37 W/m2 FEW
12:35 2.2 °F /  -16.6 °C 1.2 °F /  -17.1 °C 996.2in /  33731.3hPa West 1.1mph /  1.8km/h 5.6mph /  9km/h 93% 0.0in /  0mm WeatherDisplay:10.37 W/m2 FEW
12:40 2.2 °F /  -16.6 °C 1.2 °F /  -17.1 °C 996.5in /  33741.5hPa Calm   9.3mph /  15km/h 93% 0.0in /  0mm WeatherDisplay:10.37 W/m2 FEW
12:45 2.2 °F /  -16.6 °C 1.2 °F /  -17.1 °C 996.5in /  33741.5hPa Calm   7.4mph /  11.9km/h 93% 0.0in /  0mm WeatherDisplay:10.37 W/m2 FEW
12:50 2.2 °F /  -16.6 °C 1.2 °F /  -17.1 °C 996.5in /  33741.5hPa WNW 0.5mph /  0.8km/h 3.7mph /  6km/h 93% 0.0in /  0mm WeatherDisplay:10.37 W/m2 FEW
12:51 2.2 °F /  -16.6 °C 1.2 °F /  -17.1 °C 996.5in /  33741.5hPa WNW 0.5mph /  0.8km/h 3.7mph /  6km/h 93% 0.0in /  0mm WeatherDisplay:10.37 W/m2 FEW
12:57 2.2 °F /  -16.6 °C 1.2 °F /  -17.1 °C 996.5in /  33741.5hPa WNW 0.2mph /  0.3km/h 1.6mph /  2.6km/h 93% 0.0in /  0mm WeatherDisplay:10.37 W/m2 FEW
13:02 2.2 °F /  -16.6 °C 1.2 °F /  -17.1 °C 996.8in /  33751.6hPa WSW 0.8mph /  1.3km/h 5.6mph /  9km/h 93% 0.0in /  0mm WeatherDisplay:10.37 W/m2 FEW
13:07 2.3 °F /  -16.5 °C 1.4 °F /  -17 °C 996.8in /  33751.6hPa Calm   3.2mph /  5.1km/h 94% 0.0in /  0mm WeatherDisplay:10.37 W/m2 FEW
13:12 2.3 °F /  -16.5 °C 1.4 °F /  -17 °C 996.8in /  33751.6hPa West 1.4mph /  2.3km/h 5.6mph /  9km/h 94% 0.0in /  0mm WeatherDisplay:10.37 W/m2 FEW
13:14 2.3 °F /  -16.5 °C 1.3 °F /  -17.1 °C 997.2in /  33765.2hPa West 3.5mph /  5.6km/h 9.7mph /  15.6km/h 93% 0.0in /  0mm WeatherDisplay:10.37 W/m2 FEW
13:19 2.3 °F /  -16.5 °C 1.3 °F /  -17.1 °C 997.2in /  33765.2hPa Calm   1.6mph /  2.6km/h 93% 0.0in /  0mm WeatherDisplay:10.37 W/m2 FEW
13:24 2.4 °F /  -16.4 °C 1.4 °F /  -17 °C 997.2in /  33765.2hPa Calm     93% 0.0in /  0mm WeatherDisplay:10.37 W/m2 FEW
13:29 2.4 °F /  -16.4 °C 1.4 °F /  -17 °C 997.2in /  33765.2hPa Calm     93% 0.0in /  0mm WeatherDisplay:10.37 W/m2 FEW
13:32 2.4 °F /  -16.4 °C 1.4 °F /  -17 °C 997.2in /  33765.2hPa Calm     93% 0.0in /  0mm WeatherDisplay:10.37 W/m2 FEW
13:36 2.4 °F /  -16.4 °C 1.4 °F /  -17 °C 997.5in /  33775.4hPa Calm     93% 0.0in /  0mm WeatherDisplay:10.37 W/m2 FEW
13:46 2.4 °F /  -16.4 °C 1.4 °F /  -17 °C 997.5in /  33775.4hPa Calm     93% 0.0in /  0mm WeatherDisplay:10.37 W/m2 FEW
13:51 2.4 °F /  -16.4 °C 1.4 °F /  -17 °C 997.9in /  33788.9hPa Calm     93% 0.0in /  0mm WeatherDisplay:10.37 W/m2 FEW
13:56 2.4 °F /  -16.4 °C 1.4 °F /  -17 °C 997.9in /  33788.9hPa Calm     93% 0.0in /  0mm WeatherDisplay:10.37 W/m2 FEW
14:01 2.4 °F /  -16.4 °C 1.4 °F /  -17 °C 997.9in /  33788.9hPa Calm     93% 0.0in /  0mm WeatherDisplay:10.37 W/m2 FEW
14:05 2.4 °F /  -16.4 °C 1.4 °F /  -17 °C 998.2in /  33799.1hPa Calm     93% 0.0in /  0mm WeatherDisplay:10.37 W/m2 FEW
14:11 2.4 °F /  -16.4 °C 1.4 °F /  -17 °C 998.2in /  33799.1hPa NNE 0.6mph /  1km/h 3.7mph /  6km/h 93% 0.0in /  0mm WeatherDisplay:10.37 W/m2 FEW
14:16 2.4 °F /  -16.4 °C 1.4 °F /  -17 °C 998.2in /  33799.1hPa Calm     93% 0.0in /  0mm WeatherDisplay:10.37 W/m2 FEW
14:24 2.4 °F /  -16.4 °C 1.4 °F /  -17 °C 998.2in /  33799.1hPa Calm     93% 0.0in /  0mm WeatherDisplay:10.37 W/m2 FEW
14:39 2.4 °F /  -16.4 °C 1.4 °F /  -17 °C 998.2in /  33799.1hPa Calm     93% 0.0in /  0mm WeatherDisplay:10.37 W/m2 FEW
14:41 2.4 °F /  -16.4 °C 1.4 °F /  -17 °C 998.2in /  33799.1hPa Calm     93% 0.0in /  0mm WeatherDisplay:10.37 W/m2 FEW
14:46 2.4 °F /  -16.4 °C 1.4 °F /  -17 °C 998.2in /  33799.1hPa Calm     93% 0.0in /  0mm WeatherDisplay:10.37 W/m2 FEW
14:49 2.4 °F /  -16.4 °C 1.4 °F /  -17 °C 998.2in /  33799.1hPa Calm     93% 0.0in /  0mm WeatherDisplay:10.37 W/m2 FEW
14:51 2.4 °F /  -16.4 °C 1.4 °F /  -17 °C 998.5in /  33809.2hPa Calm     93% 0.0in /  0mm WeatherDisplay:10.37 W/m2 FEW
14:55 2.4 °F /  -16.4 °C 1.4 °F /  -17 °C 998.5in /  33809.2hPa Calm     93% 0.0in /  0mm WeatherDisplay:10.37 W/m2 FEW
15:01 2.4 °F /  -16.4 °C 1.4 °F /  -17 °C 998.5in /  33809.2hPa Calm     93% 0.0in /  0mm WeatherDisplay:10.37 W/m2 FEW
15:06 2.4 °F /  -16.4 °C 1.4 °F /  -17 °C 998.5in /  33809.2hPa Calm     93% 0.0in /  0mm WeatherDisplay:10.37 W/m2 FEW
15:11 2.4 °F /  -16.4 °C 1.4 °F /  -17 °C 998.5in /  33809.2hPa Calm     93% 0.0in /  0mm WeatherDisplay:10.37 W/m2 FEW
15:16 2.4 °F /  -16.4 °C 1.4 °F /  -17 °C 998.5in /  33809.2hPa Calm     93% 0.0in /  0mm WeatherDisplay:10.37 W/m2 FEW
15:22 2.4 °F /  -16.4 °C 1.4 °F /  -17 °C 998.5in /  33809.2hPa Calm     93% 0.0in /  0mm WeatherDisplay:10.37 W/m2 FEW
15:27 2.4 °F /  -16.4 °C 1.4 °F /  -17 °C 998.5in /  33809.2hPa Calm     93% 0.0in /  0mm WeatherDisplay:10.37 W/m2 FEW
15:32 2.3 °F /  -16.5 °C 1.3 °F /  -17.1 °C 998.5in /  33809.2hPa Calm     93% 0.0in /  0mm WeatherDisplay:10.37 W/m2 FEW
15:37 2.3 °F /  -16.5 °C 1.3 °F /  -17.1 °C 998.5in /  33809.2hPa Calm     93% 0.0in /  0mm WeatherDisplay:10.37 W/m2 FEW
15:42 2.2 °F /  -16.6 °C 1.2 °F /  -17.1 °C 998.5in /  33809.2hPa Calm     93% 0.0in /  0mm WeatherDisplay:10.37 W/m2 FEW
15:49 2.1 °F /  -16.6 °C 1.1 °F /  -17.2 °C 998.9in /  33822.8hPa Calm     93% 0.0in /  0mm WeatherDisplay:10.37 W/m2 FEW
15:55 2.1 °F /  -16.6 °C 1.1 °F /  -17.2 °C 998.9in /  33822.8hPa Calm     93% 0.0in /  0mm WeatherDisplay:10.37 W/m2 FEW
15:57 2.1 °F /  -16.6 °C 1.1 °F /  -17.2 °C 998.9in /  33822.8hPa Calm     93% 0.0in /  0mm WeatherDisplay:10.37 W/m2 FEW
16:03 2.1 °F /  -16.6 °C 1.1 °F /  -17.2 °C 998.9in /  33822.8hPa Calm     93% 0.0in /  0mm WeatherDisplay:10.37 W/m2 FEW
16:12 2.0 °F /  -16.7 °C 1.0 °F /  -17.2 °C 998.9in /  33822.8hPa Calm     93% 0.0in /  0mm WeatherDisplay:10.37 W/m2 FEW
16:19 2.0 °F /  -16.7 °C 1.0 °F /  -17.2 °C 998.9in /  33822.8hPa Calm     93% 0.0in /  0mm WeatherDisplay:10.37 W/m2 FEW
16:24 2.1 °F /  -16.6 °C 1.1 °F /  -17.2 °C 998.9in /  33822.8hPa SE 0.5mph /  0.8km/h 3.7mph /  6km/h 93% 0.0in /  0mm WeatherDisplay:10.37 W/m2 FEW
16:29 2.1 °F /  -16.6 °C 1.1 °F /  -17.2 °C 998.9in /  33822.8hPa Calm     93% 0.0in /  0mm WeatherDisplay:10.37 W/m2 FEW
16:34 2.1 °F /  -16.6 °C 1.1 °F /  -17.2 °C 998.9in /  33822.8hPa SSE 0.6mph /  1km/h 3.7mph /  6km/h 93% 0.0in /  0mm WeatherDisplay:10.37 W/m2 FEW
16:36 2.2 °F /  -16.6 °C 1.2 °F /  -17.1 °C 998.9in /  33822.8hPa SSE 0.5mph /  0.8km/h 5.6mph /  9km/h 93% 0.0in /  0mm WeatherDisplay:10.37 W/m2 FEW
16:40 2.3 °F /  -16.5 °C 1.3 °F /  -17.1 °C 998.9in /  33822.8hPa Calm     93% 0.0in /  0mm WeatherDisplay:10.37 W/m2 FEW
16:45 2.4 °F /  -16.4 °C 1.4 °F /  -17 °C 998.9in /  33822.8hPa Calm     93% 0.0in /  0mm WeatherDisplay:10.37 W/m2 FEW
16:50 2.4 °F /  -16.4 °C 1.4 °F /  -17 °C 998.9in /  33822.8hPa South 1.9mph /  3.1km/h 1.9mph /  3.1km/h 93% 0.0in /  0mm WeatherDisplay:10.37 W/m2 FEW
16:51 2.4 °F /  -16.4 °C 1.4 °F /  -17 °C 998.9in /  33822.8hPa South 1.8mph /  2.9km/h 5.6mph /  9km/h 93% 0.0in /  0mm WeatherDisplay:10.37 W/m2 FEW
16:56 2.5 °F /  -16.4 °C 1.5 °F /  -16.9 °C 998.9in /  33822.8hPa Calm     93% 0.0in /  0mm WeatherDisplay:10.37 W/m2 FEW
17:01 2.6 °F /  -16.3 °C 1.6 °F /  -16.9 °C 999.2in /  33832.9hPa Calm     93% 0.0in /  0mm WeatherDisplay:10.37 W/m2 FEW
17:06 2.6 °F /  -16.3 °C 1.6 °F /  -16.9 °C 999.2in /  33832.9hPa Calm     93% 0.0in /  0mm WeatherDisplay:10.37 W/m2 FEW
17:10 2.7 °F /  -16.3 °C 1.7 °F /  -16.8 °C 999.2in /  33832.9hPa Calm     93% 0.0in /  0mm WeatherDisplay:10.37 W/m2 FEW
17:15 2.7 °F /  -16.3 °C 1.7 °F /  -16.8 °C 999.2in /  33832.9hPa Calm     93% 0.0in /  0mm WeatherDisplay:10.37 W/m2 FEW
17:20 2.9 °F /  -16.2 °C 1.9 °F /  -16.7 °C 999.2in /  33832.9hPa SE 4.7mph /  7.6km/h 11.1mph /  17.9km/h 93% 0.3in /  7.62mm WeatherDisplay:10.37 W/m2 RA
17:25 3.0 °F /  -16.1 °C 2.0 °F /  -16.7 °C 999.2in /  33832.9hPa SE 0.2mph /  0.3km/h 3.2mph /  5.1km/h 93% 0.3in /  7.62mm WeatherDisplay:10.37 W/m2 RA
17:30 3.1 °F /  -16.1 °C 2.1 °F /  -16.6 °C 999.2in /  33832.9hPa SSW 1.4mph /  2.3km/h 5.6mph /  9km/h 93% 0.3in /  7.62mm WeatherDisplay:10.37 W/m2 FEW
17:31 3.1 °F /  -16.1 °C 2.1 °F /  -16.6 °C 999.2in /  33832.9hPa SSW 1.0mph /  1.6km/h 5.6mph /  9km/h 93% 0.3in /  7.62mm WeatherDisplay:10.37 W/m2 FEW
17:38 3.2 °F /  -16 °C 2.2 °F /  -16.6 °C 999.2in /  33832.9hPa Calm   1.9mph /  3.1km/h 93% 0.3in /  7.62mm WeatherDisplay:10.37 W/m2 FEW
17:47 3.2 °F /  -16 °C 2.2 °F /  -16.6 °C 999.2in /  33832.9hPa SSW 3.2mph /  5.1km/h 9.7mph /  15.6km/h 93% 0.3in /  7.62mm WeatherDisplay:10.37 W/m2 FEW
17:57 3.2 °F /  -16 °C 2.2 °F /  -16.6 °C 999.5in /  33843.1hPa South 0.5mph /  0.8km/h 3.7mph /  6km/h 93% 0.3in /  7.62mm WeatherDisplay:10.37 W/m2 FEW
18:02 3.2 °F /  -16 °C 2.2 °F /  -16.6 °C 999.5in /  33843.1hPa SSW 4.2mph /  6.8km/h 7.4mph /  11.9km/h 93% 0.3in /  7.62mm WeatherDisplay:10.37 W/m2 FEW
18:14 3.2 °F /  -16 °C 2.2 °F /  -16.6 °C 999.5in /  33843.1hPa SSE 0.5mph /  0.8km/h 3.7mph /  6km/h 93% 0.3in /  7.62mm WeatherDisplay:10.37 W/m2 FEW
18:19 3.2 °F /  -16 °C 2.2 °F /  -16.6 °C 999.5in /  33843.1hPa SSE 2.7mph /  4.3km/h 8.0mph /  12.9km/h 93% 0.0in /  0mm WeatherDisplay:10.37 W/m2 FEW
18:30 3.2 °F /  -16 °C 2.2 °F /  -16.6 °C 999.5in /  33843.1hPa South 1.0mph /  1.6km/h 5.6mph /  9km/h 93% 0.0in /  0mm WeatherDisplay:10.37 W/m2 FEW
18:35 3.3 °F /  -15.9 °C 2.3 °F /  -16.5 °C 999.5in /  33843.1hPa Calm     93% 0.0in /  0mm WeatherDisplay:10.37 W/m2 FEW
18:45 3.2 °F /  -16 °C 2.2 °F /  -16.6 °C 999.9in /  33856.6hPa Calm     93% 0.0in /  0mm WeatherDisplay:10.37 W/m2 FEW
18:55 3.3 °F /  -15.9 °C 2.3 °F /  -16.5 °C 999.9in /  33856.6hPa South 0.8mph /  1.3km/h 5.6mph /  9km/h 93% 0.0in /  0mm WeatherDisplay:10.37 W/m2 FEW
18:59 3.3 °F /  -15.9 °C 2.3 °F /  -16.5 °C 999.9in /  33856.6hPa SSW 4.0mph /  6.4km/h 14.8mph /  23.8km/h 93% 0.0in /  0mm WeatherDisplay:10.37 W/m2 FEW
19:04 3.3 °F /  -15.9 °C 2.3 °F /  -16.5 °C 999.9in /  33856.6hPa Calm   1.9mph /  3.1km/h 93% 0.0in /  0mm WeatherDisplay:10.37 W/m2 FEW
19:07 3.3 °F /  -15.9 °C 2.3 °F /  -16.5 °C 999.9in /  33856.6hPa West 2.7mph /  4.3km/h 7.4mph /  11.9km/h 93% 0.0in /  0mm WeatherDisplay:10.37 W/m2 FEW
19:12 3.3 °F /  -15.9 °C 2.3 °F /  -16.5 °C 999.9in /  33856.6hPa SSW 3.1mph /  5km/h 16.7mph /  26.9km/h 93% 0.3in /  7.62mm WeatherDisplay:10.37 W/m2 RA
19:16 3.3 °F /  -15.9 °C 2.3 °F /  -16.5 °C 999.9in /  33856.6hPa WSW 2.6mph /  4.2km/h 7.4mph /  11.9km/h 93% 0.3in /  7.62mm WeatherDisplay:10.37 W/m2 RA
19:26 3.3 °F /  -15.9 °C 2.3 °F /  -16.5 °C 999.9in /  33856.6hPa South 2.3mph /  3.7km/h 7.4mph /  11.9km/h 93% 0.3in /  7.62mm WeatherDisplay:10.37 W/m2 FEW
19:31 3.3 °F /  -15.9 °C 2.3 °F /  -16.5 °C 999.9in /  33856.6hPa West 1.0mph /  1.6km/h 3.7mph /  6km/h 93% 0.3in /  7.62mm WeatherDisplay:10.37 W/m2 FEW
19:36 3.3 °F /  -15.9 °C 2.3 °F /  -16.5 °C 999.9in /  33856.6hPa South 3.1mph /  5km/h 11.1mph /  17.9km/h 93% 0.3in /  7.62mm WeatherDisplay:10.37 W/m2 FEW
19:41 3.3 °F /  -15.9 °C 2.3 °F /  -16.5 °C 999.9in /  33856.6hPa SE 1.8mph /  2.9km/h 5.6mph /  9km/h 93% 0.3in /  7.62mm WeatherDisplay:10.37 W/m2 FEW
19:49 3.2 °F /  -16 °C 2.2 °F /  -16.6 °C 999.9in /  33856.6hPa SE 1.6mph /  2.6km/h 5.6mph /  9km/h 93% 0.3in /  7.62mm WeatherDisplay:10.37 W/m2 FEW
19:51 3.2 °F /  -16 °C 2.2 °F /  -16.6 °C 999.9in /  33856.6hPa Calm     93% 0.3in /  7.62mm WeatherDisplay:10.37 W/m2 FEW
19:53 3.2 °F /  -16 °C 2.2 °F /  -16.6 °C 999.9in /  33856.6hPa Calm     93% 0.3in /  7.62mm WeatherDisplay:10.37 W/m2 FEW
19:58 3.2 °F /  -16 °C 2.2 °F /  -16.6 °C 999.9in /  33856.6hPa SSE 3.9mph /  6.3km/h 5.6mph /  9km/h 93% 0.3in /  7.62mm WeatherDisplay:10.37 W/m2 FEW
20:03 3.2 °F /  -16 °C 2.2 °F /  -16.6 °C 999.9in /  33856.6hPa Calm     93% 0.3in /  7.62mm WeatherDisplay:10.37 W/m2 FEW
20:07 3.2 °F /  -16 °C 2.2 °F /  -16.6 °C 1000.2in /  33866.8hPa Calm     93% 0.3in /  7.62mm WeatherDisplay:10.37 W/m2 FEW
20:12 3.2 °F /  -16 °C 2.2 °F /  -16.6 °C 1000.2in /  33866.8hPa Calm     93% 0.0in /  0mm WeatherDisplay:10.37 W/m2 FEW
20:13 3.2 °F /  -16 °C 2.2 °F /  -16.6 °C 1000.2in /  33866.8hPa SSE 7.1mph /  11.4km/h 20.4mph /  32.8km/h 93% 0.0in /  0mm WeatherDisplay:10.37 W/m2 FEW
20:18 3.2 °F /  -16 °C 2.2 °F /  -16.6 °C 1000.2in /  33866.8hPa SSW 0.5mph /  0.8km/h 5.6mph /  9km/h 93% 0.0in /  0mm WeatherDisplay:10.37 W/m2 FEW
20:23 3.3 °F /  -15.9 °C 2.3 °F /  -16.5 °C 999.9in /  33856.6hPa South 3.2mph /  5.1km/h 9.7mph /  15.6km/h 93% 0.0in /  0mm WeatherDisplay:10.37 W/m2 FEW
20:28 3.2 °F /  -16 °C 2.2 °F /  -16.6 °C 1000.2in /  33866.8hPa Calm     93% 0.0in /  0mm WeatherDisplay:10.37 W/m2 FEW
20:29 3.2 °F /  -16 °C 2.2 °F /  -16.6 °C 999.9in /  33856.6hPa South 0.6mph /  1km/h 5.6mph /  9km/h 93% 0.0in /  0mm WeatherDisplay:10.37 W/m2 FEW
20:35 3.2 °F /  -16 °C 2.3 °F /  -16.5 °C 1000.2in /  33866.8hPa South 3.1mph /  5km/h 9.3mph /  15km/h 94% 0.0in /  0mm WeatherDisplay:10.37 W/m2 FEW
20:36 3.1 °F /  -16.1 °C 2.2 °F /  -16.6 °C 1000.2in /  33866.8hPa South 3.1mph /  5km/h 3.1mph /  5km/h 94% 0.0in /  0mm WeatherDisplay:10.37 W/m2 FEW
20:42 3.1 °F /  -16.1 °C 2.1 °F /  -16.6 °C 1000.2in /  33866.8hPa Calm     93% 0.0in /  0mm WeatherDisplay:10.37 W/m2 FEW
20:47 3.0 °F /  -16.1 °C 2.0 °F /  -16.7 °C 1000.2in /  33866.8hPa SSW 1.8mph /  2.9km/h 5.6mph /  9km/h 93% 0.0in /  0mm WeatherDisplay:10.37 W/m2 FEW
20:52 3.0 °F /  -16.1 °C 2.0 °F /  -16.7 °C 1000.2in /  33866.8hPa Calm     93% 0.0in /  0mm WeatherDisplay:10.37 W/m2 FEW
20:57 3.0 °F /  -16.1 °C 2.0 °F /  -16.7 °C 1000.2in /  33866.8hPa SE 0.5mph /  0.8km/h 5.6mph /  9km/h 93% 0.0in /  0mm WeatherDisplay:10.37 W/m2 FEW
21:03 3.0 °F /  -16.1 °C 2.0 °F /  -16.7 °C 1000.2in /  33866.8hPa Calm     93% 0.0in /  0mm WeatherDisplay:10.37 W/m2 FEW
21:10 3.0 °F /  -16.1 °C 2.0 °F /  -16.7 °C 1000.2in /  33866.8hPa Calm   3.2mph /  5.1km/h 93% 0.0in /  0mm WeatherDisplay:10.37 W/m2 FEW
21:15 3.0 °F /  -16.1 °C 2.0 °F /  -16.7 °C 1000.2in /  33866.8hPa Calm   1.9mph /  3.1km/h 93% 0.0in /  0mm WeatherDisplay:10.37 W/m2 FEW
21:20 3.0 °F /  -16.1 °C 2.0 °F /  -16.7 °C 1000.2in /  33866.8hPa SSE 2.1mph /  3.4km/h 2.1mph /  3.4km/h 93% 0.0in /  0mm WeatherDisplay:10.37 W/m2 FEW
21:24 2.9 °F /  -16.2 °C 1.9 °F /  -16.7 °C 1000.2in /  33866.8hPa West 0.8mph /  1.3km/h 11.1mph /  17.9km/h 93% 0.0in /  0mm WeatherDisplay:10.37 W/m2 FEW
21:35 3.1 °F /  -16.1 °C 2.1 °F /  -16.6 °C 1000.2in /  33866.8hPa SE 1.3mph /  2.1km/h 11.3mph /  18.2km/h 93% 0.0in /  0mm WeatherDisplay:10.37 W/m2 FEW
21:40 3.1 °F /  -16.1 °C 2.1 °F /  -16.6 °C 1000.2in /  33866.8hPa SSE 0.6mph /  1km/h 5.6mph /  9km/h 93% 0.0in /  0mm WeatherDisplay:10.37 W/m2 FEW
21:45 3.2 °F /  -16 °C 2.2 °F /  -16.6 °C 1000.2in /  33866.8hPa South 0.2mph /  0.3km/h 3.7mph /  6km/h 93% 0.0in /  0mm WeatherDisplay:10.37 W/m2 FEW
21:46 3.2 °F /  -16 °C 2.2 °F /  -16.6 °C 1000.2in /  33866.8hPa WSW 0.6mph /  1km/h 3.7mph /  6km/h 93% 0.0in /  0mm WeatherDisplay:10.37 W/m2 FEW
21:55 3.2 °F /  -16 °C 2.2 °F /  -16.6 °C 1000.6in /  33880.3hPa SW 0.2mph /  0.3km/h 1.9mph /  3.1km/h 93% 0.0in /  0mm WeatherDisplay:10.37 W/m2 FEW
21:56 3.2 °F /  -16 °C 2.2 °F /  -16.6 °C 1000.6in /  33880.3hPa South 0.2mph /  0.3km/h 3.2mph /  5.1km/h 93% 0.0in /  0mm WeatherDisplay:10.37 W/m2 FEW
22:01 3.2 °F /  -16 °C 2.2 °F /  -16.6 °C 1000.6in /  33880.3hPa SE 4.3mph /  6.9km/h 11.1mph /  17.9km/h 93% 0.0in /  0mm WeatherDisplay:10.37 W/m2 FEW
22:06 3.2 °F /  -16 °C 2.2 °F /  -16.6 °C 1000.6in /  33880.3hPa SE 3.1mph /  5km/h 5.6mph /  9km/h 93% 0.0in /  0mm WeatherDisplay:10.37 W/m2 FEW
22:07 3.2 °F /  -16 °C 2.2 °F /  -16.6 °C 1000.6in /  33880.3hPa SSE 1.9mph /  3.1km/h 5.6mph /  9km/h 93% 0.0in /  0mm WeatherDisplay:10.37 W/m2 FEW
22:13 3.2 °F /  -16 °C 2.2 °F /  -16.6 °C 1000.6in /  33880.3hPa Calm     93% 0.0in /  0mm WeatherDisplay:10.37 W/m2 FEW
22:18 3.3 °F /  -15.9 °C 2.3 °F /  -16.5 °C 1000.6in /  33880.3hPa South 6.1mph /  9.8km/h 13.0mph /  20.9km/h 93% 0.0in /  0mm WeatherDisplay:10.37 W/m2 FEW
22:20 3.3 °F /  -15.9 °C 2.3 °F /  -16.5 °C 1000.6in /  33880.3hPa SSW 0.5mph /  0.8km/h 7.4mph /  11.9km/h 93% 0.0in /  0mm WeatherDisplay:10.37 W/m2 FEW
22:26 3.3 °F /  -15.9 °C 2.3 °F /  -16.5 °C 1000.6in /  33880.3hPa SSE 1.0mph /  1.6km/h 6.4mph /  10.3km/h 93% 0.0in /  0mm WeatherDisplay:10.37 W/m2 FEW
22:31 3.2 °F /  -16 °C 2.3 °F /  -16.5 °C 1000.6in /  33880.3hPa South 0.2mph /  0.3km/h 5.6mph /  9km/h 94% 0.0in /  0mm WeatherDisplay:10.37 W/m2 FEW
22:36 3.2 °F /  -16 °C 2.3 °F /  -16.5 °C 1000.6in /  33880.3hPa East 1.1mph /  1.8km/h 5.6mph /  9km/h 94% 0.0in /  0mm WeatherDisplay:10.37 W/m2 FEW
22:41 3.2 °F /  -16 °C 2.3 °F /  -16.5 °C 1000.6in /  33880.3hPa Calm     94% 0.0in /  0mm WeatherDisplay:10.37 W/m2 FEW
22:45 3.2 °F /  -16 °C 2.3 °F /  -16.5 °C 1000.6in /  33880.3hPa South 3.1mph /  5km/h 5.6mph /  9km/h 94% 0.0in /  0mm WeatherDisplay:10.37 W/m2 FEW
22:46 3.2 °F /  -16 °C 2.3 °F /  -16.5 °C 1000.6in /  33880.3hPa SW 0.6mph /  1km/h 5.6mph /  9km/h 94% 0.0in /  0mm WeatherDisplay:10.37 W/m2 FEW
22:51 3.3 °F /  -15.9 °C 2.4 °F /  -16.4 °C 1000.6in /  33880.3hPa South 3.2mph /  5.1km/h 5.6mph /  9km/h 94% 0.0in /  0mm WeatherDisplay:10.37 W/m2 FEW
22:52 3.3 °F /  -15.9 °C 2.4 °F /  -16.4 °C 1000.6in /  33880.3hPa SW 6.6mph /  10.6km/h 16.7mph /  26.9km/h 94% 0.0in /  0mm WeatherDisplay:10.37 W/m2 FEW
22:57 3.3 °F /  -15.9 °C 2.3 °F /  -16.5 °C 1000.6in /  33880.3hPa South 1.0mph /  1.6km/h 11.1mph /  17.9km/h 93% 0.0in /  0mm WeatherDisplay:10.37 W/m2 FEW
23:02 3.3 °F /  -15.9 °C 2.3 °F /  -16.5 °C 1000.9in /  33890.5hPa SE 0.3mph /  0.5km/h 3.7mph /  6km/h 93% 0.0in /  0mm WeatherDisplay:10.37 W/m2 FEW
23:07 3.3 °F /  -15.9 °C 2.3 °F /  -16.5 °C 1000.9in /  33890.5hPa NNE 2.1mph /  3.4km/h 7.4mph /  11.9km/h 93% 0.0in /  0mm WeatherDisplay:10.37 W/m2 FEW
23:11 3.3 °F /  -15.9 °C 2.3 °F /  -16.5 °C 1000.9in /  33890.5hPa South 1.3mph /  2.1km/h 5.6mph /  9km/h 93% 0.0in /  0mm WeatherDisplay:10.37 W/m2 FEW
23:17 3.4 °F /  -15.9 °C 2.4 °F /  -16.4 °C 1000.9in /  33890.5hPa Calm     93% 0.0in /  0mm WeatherDisplay:10.37 W/m2 FEW
23:18 3.4 °F /  -15.9 °C 2.4 °F /  -16.4 °C 1000.9in /  33890.5hPa Calm   1.9mph /  3.1km/h 93% 0.0in /  0mm WeatherDisplay:10.37 W/m2 FEW
23:25 3.4 °F /  -15.9 °C 2.4 °F /  -16.4 °C 1000.9in /  33890.5hPa SW 0.6mph /  1km/h 3.2mph /  5.1km/h 93% 0.0in /  0mm WeatherDisplay:10.37 W/m2 FEW
23:31 3.4 °F /  -15.9 °C 2.4 °F /  -16.4 °C 1000.9in /  33890.5hPa SSW 0.2mph /  0.3km/h 3.2mph /  5.1km/h 93% 0.0in /  0mm WeatherDisplay:10.37 W/m2 FEW
23:36 3.4 °F /  -15.9 °C 2.4 °F /  -16.4 °C 1000.9in /  33890.5hPa SE 0.5mph /  0.8km/h 5.6mph /  9km/h 93% 0.0in /  0mm WeatherDisplay:10.37 W/m2 FEW
23:41 3.4 °F /  -15.9 °C 2.4 °F /  -16.4 °C 1000.9in /  33890.5hPa Calm     93% 0.0in /  0mm WeatherDisplay:10.37 W/m2 FEW
23:46 3.3 °F /  -15.9 °C 2.3 °F /  -16.5 °C 1000.9in /  33890.5hPa WSW 6.8mph /  10.9km/h 14.8mph /  23.8km/h 93% 0.0in /  0mm WeatherDisplay:10.37 W/m2 FEW
23:51 3.4 °F /  -15.9 °C 2.4 °F /  -16.4 °C 1000.9in /  33890.5hPa SSW 1.0mph /  1.6km/h 1.9mph /  3.1km/h 93% 0.0in /  0mm WeatherDisplay:10.37 W/m2 FEW
23:54 3.4 °F /  -15.9 °C 2.4 °F /  -16.4 °C 1000.9in /  33890.5hPa SE 2.3mph /  3.7km/h 6.4mph /  10.3km/h 93% 0.0in /  0mm WeatherDisplay:10.37 W/m2 FEW
23:59 3.3 °F /  -15.9 °C 2.3 °F /  -16.5 °C 1000.9in /  33890.5hPa South 2.4mph /  3.9km/h 5.6mph /  9km/h 93% 0.0in /  0mm WeatherDisplay:10.37 W/m2 FEW
Tuulensuunkaari, Veikkola, Suomi
Compliments of Weather Underground - 2.75 mb